Saint Marys Point, Minnesota
Current Conditions -  °F | °C
As of 3:31 AM on Friday 24 Oct 2014 (Local Time) from K21D Reporting Station
Haze Haze  
Wind Chill: 46°   Ceiling: 200
Heat Index: 46°   Visibility: 2mi
Dew Point: 46°   Wind: 3mph
Humidity: 100%   Direction: 170°S
Pressure: 29.97"   Gusts: NA
Location:  44.9414°N, 92.7724°W
Report Text: K21D 240831Z AUTO 17003KT 2SM BR OVC002 08/08 A2997 RMK AO2
Loading
Personal Weather Stations






























Interactive Weather Map
Tropical Storm Tracking
New forecast layout! Learn more

10-Day Weather Forecast

Advertisements
Track Severe Weather on mobile